createdAt,value
2022-10-06T00:00:10.509Z,101024.84
2022-10-06T00:02:41.063Z,101019.84
2022-10-06T00:05:11.641Z,101036.47
2022-10-06T00:07:42.331Z,101010.88
2022-10-06T00:10:12.837Z,101047.47
2022-10-06T00:12:45.415Z,100974.53
2022-10-06T00:15:19.878Z,101037.91
2022-10-06T00:17:50.655Z,101072.69
2022-10-06T00:20:22.070Z,101063.13
2022-10-06T00:22:52.650Z,101051.88
2022-10-06T00:25:24.941Z,101078.09
2022-10-06T00:27:55.978Z,101081.44
2022-10-06T00:30:28.916Z,100990.72
2022-10-06T00:33:05.636Z,101032.28
2022-10-06T00:35:36.466Z,101085.59
2022-10-06T00:38:07.340Z,101087.47
2022-10-06T00:40:48.554Z,101090.97
2022-10-06T00:44:00.336Z,101094.34
2022-10-06T00:46:49.058Z,101091.81
2022-10-06T00:49:40.676Z,101073.50
2022-10-06T00:52:16.265Z,101085.56
2022-10-06T00:54:46.816Z,101090.16
2022-10-06T00:57:18.167Z,101089.72
2022-10-06T00:59:49.226Z,101094.72
2022-10-06T01:02:31.090Z,101094.72
2022-10-06T01:05:04.623Z,101013.22
2022-10-06T01:07:35.060Z,101096.78
2022-10-06T01:10:05.798Z,101108.47
2022-10-06T01:12:36.811Z,101105.56
2022-10-06T01:15:09.015Z,101107.22
2022-10-06T01:17:53.832Z,101099.53
2022-10-06T01:20:24.895Z,101092.19
2022-10-06T01:23:08.170Z,101016.31
2022-10-06T01:25:39.199Z,101076.41
2022-10-06T01:28:11.566Z,101098.88
2022-10-06T01:30:54.149Z,101012.38
2022-10-06T01:33:27.086Z,101087.66
2022-10-06T01:35:58.221Z,101100.09
2022-10-06T01:38:28.872Z,101103.00
2022-10-06T01:41:04.290Z,101106.13
2022-10-06T01:43:37.777Z,101123.22
2022-10-06T01:46:08.972Z,101125.91
2022-10-06T01:48:39.368Z,101138.19
2022-10-06T01:51:15.411Z,101039.19
2022-10-06T01:53:46.495Z,101142.13
2022-10-06T01:56:16.929Z,101138.16
2022-10-06T01:58:47.630Z,101125.50
2022-10-06T02:01:18.722Z,101137.94
2022-10-06T02:06:52.409Z,101132.75
2022-10-06T02:09:23.894Z,101134.19
2022-10-06T02:11:56.756Z,101120.03
2022-10-06T02:14:27.759Z,101125.84
2022-10-06T02:16:58.105Z,101127.06
2022-10-06T02:19:28.494Z,101136.66
2022-10-06T02:22:01.439Z,101127.50
2022-10-06T02:24:32.179Z,101110.84
2022-10-06T02:27:02.733Z,101129.34
2022-10-06T02:29:33.570Z,101139.16
2022-10-06T02:32:05.000Z,101130.41
2022-10-06T02:34:35.439Z,101140.41
2022-10-06T02:37:07.707Z,101141.63
2022-10-06T02:39:38.653Z,101082.75
2022-10-06T02:42:09.062Z,101138.47
2022-10-06T02:44:41.825Z,101141.81
2022-10-06T02:47:15.488Z,101133.25
2022-10-06T02:49:46.905Z,101131.16
2022-10-06T02:52:18.973Z,101121.56
2022-10-06T02:54:49.345Z,101116.75
2022-10-06T02:57:19.632Z,101115.69
2022-10-06T02:59:50.519Z,101111.53
2022-10-06T03:02:21.115Z,101111.09
2022-10-06T03:04:51.863Z,101116.06
2022-10-06T03:07:22.502Z,101102.78
2022-10-06T03:09:52.819Z,101118.97
2022-10-06T03:12:25.643Z,101120.63
2022-10-06T03:14:56.032Z,101110.22
2022-10-06T03:17:26.738Z,101126.00
2022-10-06T03:20:00.217Z,101125.81
2022-10-06T03:22:30.524Z,101122.66
2022-10-06T03:25:01.017Z,101119.94
2022-10-06T03:27:31.726Z,101127.66
2022-10-06T03:30:07.032Z,101123.91
2022-10-06T03:32:39.531Z,101115.16
2022-10-06T03:35:11.851Z,101086.06
2022-10-06T03:37:42.875Z,101121.41
2022-10-06T03:40:13.394Z,101112.19
2022-10-06T03:42:44.198Z,101122.59
2022-10-06T03:45:15.002Z,101120.25
2022-10-06T03:47:45.333Z,101124.41
2022-10-06T03:50:15.978Z,101125.03
2022-10-06T03:52:52.196Z,101106.75
2022-10-06T03:55:23.024Z,101105.25
2022-10-06T03:57:53.770Z,101110.41
2022-10-06T04:00:24.069Z,101109.19
2022-10-06T04:02:54.475Z,101104.53
2022-10-06T04:05:25.001Z,101092.94
2022-10-06T04:07:55.685Z,101102.91
2022-10-06T04:10:26.022Z,101072.13
2022-10-06T04:12:56.315Z,101103.28
2022-10-06T04:15:26.639Z,101094.09
2022-10-06T04:17:57.063Z,101089.28
2022-10-06T04:20:27.976Z,101086.63
2022-10-06T04:22:58.855Z,101094.50
2022-10-06T04:25:29.351Z,101080.38
2022-10-06T04:28:00.407Z,101083.63
2022-10-06T04:30:31.486Z,101087.78
2022-10-06T04:33:02.344Z,101077.75
2022-10-06T04:35:32.687Z,101076.50
2022-10-06T04:38:03.121Z,101081.91
2022-10-06T04:40:34.580Z,101079.41
2022-10-06T04:43:05.746Z,101075.44
2022-10-06T04:45:36.606Z,101071.91
2022-10-06T04:48:09.940Z,101077.50
2022-10-06T04:50:40.855Z,101068.28
2022-10-06T04:53:14.608Z,101043.75
2022-10-06T04:55:45.557Z,101041.78
2022-10-06T04:58:16.418Z,101034.25
2022-10-06T05:00:50.110Z,101025.88
2022-10-06T05:03:20.648Z,100981.69
2022-10-06T05:05:51.026Z,101022.75
2022-10-06T05:08:21.604Z,101015.47
2022-10-06T05:10:52.070Z,101009.78
2022-10-06T05:13:22.917Z,101002.47
2022-10-06T05:16:00.836Z,100994.59
2022-10-06T05:18:35.609Z,100995.78
2022-10-06T05:21:28.269Z,100992.50
2022-10-06T05:23:59.650Z,100989.53
2022-10-06T05:26:32.774Z,100967.03
2022-10-06T05:29:05.935Z,100972.78
2022-10-06T05:31:44.060Z,100964.44
2022-10-06T05:34:16.809Z,100948.16
2022-10-06T05:36:49.051Z,100943.56
2022-10-06T05:39:19.633Z,100923.13
2022-10-06T05:41:53.913Z,100919.75
2022-10-06T05:44:24.289Z,100910.53
2022-10-06T05:46:54.686Z,100896.97
2022-10-06T05:49:25.102Z,100892.16
2022-10-06T05:52:02.320Z,100864.25
2022-10-06T05:54:38.171Z,100856.88
2022-10-06T05:57:10.243Z,100851.66
2022-10-06T05:59:41.849Z,100847.91
2022-10-06T06:02:12.371Z,100843.31
2022-10-06T06:04:45.918Z,100837.41
2022-10-06T06:07:16.938Z,100814.75
2022-10-06T06:09:48.915Z,100817.81
2022-10-06T06:12:19.279Z,100792.34
2022-10-06T06:15:14.317Z,100770.38
2022-10-06T06:17:49.895Z,100782.31
2022-10-06T06:20:20.249Z,100781.84
2022-10-06T06:22:54.514Z,100732.72
2022-10-06T06:25:31.215Z,100713.41
2022-10-06T06:28:01.862Z,100737.13
2022-10-06T06:30:32.416Z,100746.34
2022-10-06T06:33:02.971Z,100722.72
2022-10-06T06:35:33.336Z,100740.91
2022-10-06T06:38:03.887Z,100734.44
2022-10-06T06:40:35.479Z,100730.06
2022-10-06T06:43:06.024Z,100718.63
2022-10-06T06:46:05.425Z,100711.53
2022-10-06T06:49:05.381Z,100689.25
2022-10-06T06:51:50.772Z,100697.47
2022-10-06T06:54:23.442Z,100687.69
2022-10-06T06:56:58.749Z,100689.59
2022-10-06T06:59:29.166Z,100667.28
2022-10-06T07:02:01.968Z,100689.81
2022-10-06T07:04:38.264Z,100677.53
2022-10-06T07:07:13.201Z,100599.47
2022-10-06T07:09:44.726Z,100687.47
2022-10-06T07:12:16.219Z,100673.06
2022-10-06T07:15:12.848Z,100688.78
2022-10-06T07:18:05.303Z,100690.88
2022-10-06T07:20:54.925Z,100686.06
2022-10-06T07:23:45.109Z,100640.91
2022-10-06T07:26:22.218Z,100672.09
2022-10-06T07:28:55.000Z,100675.78
2022-10-06T07:31:26.471Z,100662.69
2022-10-06T07:33:58.090Z,100600.56
2022-10-06T07:36:29.103Z,100650.31
2022-10-06T07:38:59.533Z,100650.78
2022-10-06T07:41:32.549Z,100651.25
2022-10-06T07:44:08.120Z,100661.16
2022-10-06T07:46:40.448Z,100629.88
2022-10-06T07:49:20.140Z,100646.53
2022-10-06T07:51:51.162Z,100636.25
2022-10-06T07:54:27.150Z,100647.84
2022-10-06T07:57:24.521Z,100655.34
2022-10-06T07:59:57.090Z,100657.38
2022-10-06T08:02:34.687Z,100649.38
2022-10-06T08:05:06.958Z,100660.91
2022-10-06T08:07:37.347Z,100659.97
2022-10-06T08:10:08.356Z,100659.97
2022-10-06T08:12:41.049Z,100666.13
2022-10-06T08:15:13.977Z,100655.13
2022-10-06T08:17:44.374Z,100667.75
2022-10-06T08:20:15.123Z,100678.63
2022-10-06T08:22:46.275Z,100671.56
2022-10-06T08:25:16.881Z,100674.47
2022-10-06T08:27:52.651Z,100676.97
2022-10-06T08:30:27.596Z,100673.44
2022-10-06T08:32:59.469Z,100676.16
2022-10-06T08:35:31.479Z,100679.59
2022-10-06T08:38:01.774Z,100680.03
2022-10-06T08:40:32.501Z,100682.88
2022-10-06T08:43:04.190Z,100603.25
2022-10-06T08:45:44.165Z,100672.22
2022-10-06T08:48:30.741Z,100698.78
2022-10-06T08:51:20.738Z,100692.06
2022-10-06T08:54:12.688Z,100559.47
2022-10-06T08:57:23.420Z,100549.56
2022-10-06T08:59:54.419Z,100684.25
2022-10-06T09:02:31.415Z,100695.50
2022-10-06T09:05:05.695Z,100688.66
2022-10-06T09:08:02.415Z,100700.44
2022-10-06T09:10:32.797Z,100707.16
2022-10-06T09:13:22.052Z,100683.25
2022-10-06T09:16:00.202Z,100640.28
2022-10-06T09:19:07.834Z,100647.06
2022-10-06T09:21:46.809Z,100740.56
2022-10-06T09:24:46.957Z,100644.09
2022-10-06T09:27:29.344Z,100685.22
2022-10-06T09:30:00.914Z,100746.13
2022-10-06T09:32:33.120Z,100746.03
2022-10-06T09:35:13.950Z,100747.16
2022-10-06T09:38:17.225Z,100745.28
2022-10-06T09:40:53.933Z,100730.69
2022-10-06T09:43:29.561Z,100749.09
2022-10-06T09:46:21.670Z,100746.13
2022-10-06T09:49:18.524Z,100774.47
2022-10-06T09:52:13.894Z,100767.38
2022-10-06T09:54:46.354Z,100722.25
2022-10-06T09:57:22.820Z,100773.13
2022-10-06T09:59:54.426Z,100777.38
2022-10-06T10:02:40.507Z,100692.28
2022-10-06T10:05:24.499Z,100779.91
2022-10-06T10:08:19.346Z,100796.16
2022-10-06T10:10:51.598Z,100779.47
2022-10-06T10:13:27.864Z,100794.06
2022-10-06T10:16:04.073Z,100774.31
2022-10-06T10:18:34.778Z,100782.00
2022-10-06T10:21:08.089Z,100772.53
2022-10-06T10:23:43.877Z,100733.22
2022-10-06T10:26:40.809Z,100717.09
2022-10-06T10:29:33.244Z,100804.28
2022-10-06T10:32:12.842Z,100808.69
2022-10-06T10:34:45.960Z,100810.75
2022-10-06T10:37:19.555Z,100751.13
2022-10-06T10:39:54.568Z,100795.47
2022-10-06T10:42:42.215Z,100837.25
2022-10-06T10:45:37.794Z,100820.50
2022-10-06T10:48:16.966Z,100826.59
2022-10-06T10:51:14.351Z,100688.47
2022-10-06T10:53:57.001Z,100835.25
2022-10-06T10:56:30.867Z,100820.50
2022-10-06T10:59:10.835Z,100831.88
2022-10-06T11:01:47.784Z,100832.47
2022-10-06T11:04:18.284Z,100832.03
2022-10-06T11:07:13.069Z,100780.94
2022-10-06T11:10:15.443Z,100855.81
2022-10-06T11:12:51.597Z,100857.00
2022-10-06T11:15:49.534Z,100844.22
2022-10-06T11:18:27.132Z,100848.75
2022-10-06T11:21:04.948Z,100855.22
2022-10-06T11:23:54.789Z,100857.47
2022-10-06T11:26:39.121Z,100860.59
2022-10-06T11:29:15.745Z,100857.88
2022-10-06T11:32:15.058Z,100856.38
2022-10-06T11:34:49.188Z,100855.91
2022-10-06T11:37:37.152Z,100860.97
2022-10-06T11:40:25.641Z,100863.88
2022-10-06T11:43:13.292Z,100777.72
2022-10-06T11:46:08.990Z,100780.69
2022-10-06T11:48:39.611Z,100865.22
2022-10-06T11:51:25.463Z,100869.41
2022-10-06T11:53:56.723Z,100880.25
2022-10-06T11:56:39.654Z,100876.94
2022-10-06T11:59:11.503Z,100806.06
2022-10-06T12:01:48.766Z,100882.38
2022-10-06T12:04:24.373Z,100864.13
2022-10-06T12:06:59.098Z,100888.81
2022-10-06T12:09:39.747Z,100824.31
2022-10-06T12:12:19.967Z,100894.06
2022-10-06T12:18:31.437Z,100875.06
2022-10-06T12:21:46.569Z,100864.34
2022-10-06T12:24:37.903Z,100847.75
2022-10-06T12:27:18.860Z,100911.19
2022-10-06T12:30:00.258Z,100819.06
2022-10-06T12:32:30.999Z,100909.84
2022-10-06T12:35:10.799Z,100910.56
2022-10-06T12:37:44.554Z,100828.84
2022-10-06T12:40:50.338Z,100907.81
2022-10-06T12:43:28.078Z,100916.16
2022-10-06T12:46:34.582Z,100892.91
2022-10-06T12:49:27.761Z,100926.41
2022-10-06T12:52:07.216Z,100927.44
2022-10-06T12:54:45.351Z,100932.22
2022-10-06T12:57:15.714Z,100932.47
2022-10-06T12:59:48.494Z,100942.50
2022-10-06T13:02:32.359Z,100955.81
2022-10-06T13:05:11.811Z,100932.50
2022-10-06T13:08:08.116Z,100947.03
2022-10-06T13:10:38.523Z,100932.31
2022-10-06T13:13:25.178Z,100947.91
2022-10-06T13:16:01.624Z,100957.25
2022-10-06T13:18:34.016Z,100953.94
2022-10-06T13:21:04.729Z,100942.91
2022-10-06T13:23:40.687Z,100895.72
2022-10-06T13:26:17.377Z,100962.03
2022-10-06T13:28:51.058Z,100969.53
2022-10-06T13:31:21.973Z,100971.63
2022-10-06T13:34:01.272Z,100966.84
2022-10-06T13:36:38.614Z,100905.09
2022-10-06T13:39:19.059Z,100982.84
2022-10-06T13:41:54.322Z,100981.16
2022-10-06T13:44:55.625Z,100835.19
2022-10-06T13:47:30.202Z,100987.81
2022-10-06T13:50:09.640Z,100980.75
2022-10-06T13:52:41.271Z,101006.31
2022-10-06T13:55:26.919Z,101000.25
2022-10-06T13:58:06.806Z,100997.56
2022-10-06T14:00:51.922Z,100998.22
2022-10-06T14:06:14.283Z,101003.41
2022-10-06T14:08:52.554Z,100995.72
2022-10-06T14:11:27.553Z,100910.66
2022-10-06T14:14:04.599Z,100986.56
2022-10-06T14:16:35.741Z,101014.22
2022-10-06T14:19:08.695Z,100993.84
2022-10-06T14:21:52.695Z,101008.19
2022-10-06T14:24:28.452Z,100983.25
2022-10-06T14:27:10.227Z,101017.34
2022-10-06T14:29:42.542Z,101012.34
2022-10-06T14:32:19.256Z,101026.09
2022-10-06T14:34:50.138Z,101021.28
2022-10-06T14:37:26.467Z,101035.63
2022-10-06T14:39:57.599Z,101023.97
2022-10-06T14:42:28.786Z,101032.91
2022-10-06T14:45:04.157Z,101038.94
2022-10-06T14:47:38.860Z,101033.94
2022-10-06T14:50:10.051Z,101035.63
2022-10-06T14:52:42.074Z,101018.16
2022-10-06T14:55:14.758Z,101038.53
2022-10-06T14:57:46.437Z,101031.88
2022-10-06T15:00:17.460Z,101031.88
2022-10-06T15:02:49.058Z,101032.91
2022-10-06T15:05:20.858Z,101032.91
2022-10-06T15:08:11.588Z,101041.41
2022-10-06T15:10:53.937Z,100962.72
2022-10-06T15:13:27.598Z,101040.81
2022-10-06T15:16:01.254Z,101046.03
2022-10-06T15:18:32.889Z,101010.44
2022-10-06T15:21:07.104Z,101033.78
2022-10-06T15:23:39.684Z,101040.81
2022-10-06T15:26:30.048Z,101034.19
2022-10-06T15:29:04.309Z,101033.56
2022-10-06T15:31:42.981Z,101043.13
2022-10-06T15:34:17.061Z,101036.88
2022-10-06T15:36:48.325Z,101038.53
2022-10-06T15:39:25.620Z,101037.28
2022-10-06T15:41:56.951Z,101034.34
2022-10-06T15:44:28.052Z,101028.97
2022-10-06T15:46:59.466Z,101033.72
2022-10-06T15:49:31.783Z,101038.06
2022-10-06T15:52:04.506Z,101026.66
2022-10-06T15:54:40.522Z,100890.34
2022-10-06T15:57:17.886Z,101006.84
2022-10-06T15:59:51.047Z,101034.31
2022-10-06T16:02:22.245Z,101034.97
2022-10-06T16:05:14.090Z,101031.44
2022-10-06T16:07:44.443Z,101036.56
2022-10-06T16:10:15.006Z,101031.38
2022-10-06T16:12:45.448Z,101025.53
2022-10-06T16:15:16.058Z,101031.34
2022-10-06T16:17:46.603Z,101043.81
2022-10-06T16:20:19.178Z,101024.47
2022-10-06T16:22:49.683Z,101017.63
2022-10-06T16:25:20.069Z,101008.88
2022-10-06T16:27:50.433Z,101028.44
2022-10-06T16:30:20.919Z,101008.06
2022-10-06T16:32:51.609Z,101009.72
2022-10-06T16:35:22.530Z,101022.22
2022-10-06T16:37:53.040Z,101016.59
2022-10-06T16:40:24.181Z,101021.78
2022-10-06T16:42:54.520Z,101016.41
2022-10-06T16:45:26.207Z,101020.56
2022-10-06T16:47:56.581Z,101015.34
2022-10-06T16:50:27.460Z,101006.41
2022-10-06T16:52:57.780Z,101006.81
2022-10-06T16:55:28.080Z,101005.59
2022-10-06T16:57:58.485Z,101011.41
2022-10-06T17:00:29.054Z,101008.94
2022-10-06T17:02:59.510Z,101006.81
2022-10-06T17:05:30.653Z,100981.50
2022-10-06T17:08:01.100Z,100997.38
2022-10-06T17:10:31.516Z,100998.19
2022-10-06T17:13:01.872Z,100991.56
2022-10-06T17:15:33.687Z,101001.94
2022-10-06T17:18:04.405Z,100962.88
2022-10-06T17:20:35.498Z,100969.09
2022-10-06T17:23:05.945Z,100994.66
2022-10-06T17:25:37.248Z,100993.63
2022-10-06T17:28:07.807Z,101001.13
2022-10-06T17:30:38.312Z,101004.44
2022-10-06T17:33:08.781Z,100993.63
2022-10-06T17:35:39.382Z,100932.28
2022-10-06T17:38:10.796Z,100985.94
2022-10-06T17:40:50.257Z,100990.50
2022-10-06T17:43:21.378Z,100992.38
2022-10-06T17:45:52.751Z,100977.41
2022-10-06T17:48:28.116Z,100884.03
2022-10-06T17:51:01.354Z,100972.66
2022-10-06T17:53:31.854Z,100977.63
2022-10-06T17:56:08.297Z,100882.38
2022-10-06T17:58:40.820Z,100951.22
2022-10-06T18:01:14.797Z,100872.63
2022-10-06T18:03:47.593Z,100962.03
2022-10-06T18:06:19.294Z,100942.03
2022-10-06T18:08:50.224Z,100970.75
2022-10-06T18:11:34.924Z,100959.75
2022-10-06T18:14:13.700Z,100863.47
2022-10-06T18:16:57.115Z,100946.63
2022-10-06T18:19:33.386Z,100887.16
2022-10-06T18:22:16.921Z,100959.09
2022-10-06T18:24:59.133Z,100950.34
2022-10-06T18:27:30.432Z,100947.00
2022-10-06T18:30:01.007Z,100941.63
2022-10-06T18:38:17.078Z,100941.63
2022-10-06T18:41:08.741Z,100947.44
2022-10-06T18:43:40.411Z,100932.28
2022-10-06T18:46:30.656Z,100929.72
2022-10-06T18:49:06.886Z,100925.41
2022-10-06T18:51:39.955Z,100933.31
2022-10-06T18:54:16.566Z,100932.28
2022-10-06T18:56:54.443Z,100935.59
2022-10-06T18:59:28.259Z,100805.47
2022-10-06T19:02:01.542Z,100937.47
2022-10-06T19:04:36.849Z,100849.09
2022-10-06T19:07:07.511Z,100932.06
2022-10-06T19:09:40.540Z,100925.00
2022-10-06T19:12:14.462Z,100927.91
2022-10-06T19:14:48.649Z,100916.06
2022-10-06T19:17:19.335Z,100921.03
2022-10-06T19:19:52.154Z,100925.41
2022-10-06T19:22:34.590Z,100918.34
2022-10-06T19:25:05.421Z,100913.97
2022-10-06T19:27:38.050Z,100835.00
2022-10-06T19:30:09.037Z,100915.22
2022-10-06T19:32:39.611Z,100905.03
2022-10-06T19:35:10.793Z,100845.16
2022-10-06T19:37:41.993Z,100885.28
2022-10-06T19:40:12.924Z,100889.03
2022-10-06T19:42:49.788Z,100898.41
2022-10-06T19:45:22.098Z,100899.22
2022-10-06T19:47:53.511Z,100892.78
2022-10-06T19:50:24.022Z,100880.50
2022-10-06T19:52:57.122Z,100881.34
2022-10-06T19:55:29.746Z,100885.31
2022-10-06T19:58:01.216Z,100875.53
2022-10-06T20:00:32.422Z,100885.50
2022-10-06T20:03:02.948Z,100880.31
2022-10-06T20:05:39.455Z,100808.56
2022-10-06T20:08:10.083Z,100888.44
2022-10-06T20:10:40.920Z,100890.28
2022-10-06T20:13:17.137Z,100884.91
2022-10-06T20:15:48.684Z,100884.03
2022-10-06T20:18:19.166Z,100881.75
2022-10-06T20:20:59.674Z,100883.84
2022-10-06T20:23:30.466Z,100858.06
2022-10-06T20:26:34.369Z,100865.72
2022-10-06T20:29:08.625Z,100890.91
2022-10-06T20:32:06.232Z,100873.03
2022-10-06T20:34:36.868Z,100875.75
2022-10-06T20:37:07.518Z,100854.75
2022-10-06T20:39:56.505Z,100865.97
2022-10-06T20:42:29.089Z,100861.19
2022-10-06T20:44:59.657Z,100875.13
2022-10-06T20:47:30.921Z,100867.66
2022-10-06T20:50:01.818Z,100866.38
2022-10-06T20:52:32.824Z,100857.25
2022-10-06T20:55:03.794Z,100853.09
2022-10-06T20:57:34.354Z,100851.84
2022-10-06T21:00:05.078Z,100842.94
2022-10-06T21:02:35.737Z,100857.25
2022-10-06T21:05:06.549Z,100852.91
2022-10-06T21:07:37.621Z,100846.44
2022-10-06T21:10:08.858Z,100844.16
2022-10-06T21:12:39.536Z,100843.56
2022-10-06T21:15:10.905Z,100841.47
2022-10-06T21:17:43.401Z,100848.97
2022-10-06T21:20:14.198Z,100841.88
2022-10-06T21:22:44.684Z,100835.66
2022-10-06T21:25:15.449Z,100845.63
2022-10-06T21:27:48.275Z,100846.66
2022-10-06T21:30:18.828Z,100820.66
2022-10-06T21:32:49.523Z,100844.16
2022-10-06T21:35:20.527Z,100851.59
2022-10-06T21:37:51.386Z,100827.91
2022-10-06T21:40:22.358Z,100850.53
2022-10-06T21:42:52.927Z,100843.91
2022-10-06T21:45:24.950Z,100836.00
2022-10-06T21:50:43.710Z,100848.84
2022-10-06T21:53:14.247Z,100847.63
2022-10-06T21:55:44.810Z,100853.84
2022-10-06T21:58:15.528Z,100855.91
2022-10-06T22:00:46.102Z,100843.84
2022-10-06T22:03:16.670Z,100854.66
2022-10-06T22:05:47.210Z,100853.00
2022-10-06T22:08:34.725Z,100853.00
2022-10-06T22:11:22.662Z,100865.84
2022-10-06T22:13:56.441Z,100865.84
2022-10-06T22:16:28.887Z,100786.41
2022-10-06T22:19:00.236Z,100864.56
2022-10-06T22:21:38.958Z,100777.84
2022-10-06T22:24:16.240Z,100859.59
2022-10-06T22:26:47.522Z,100862.91
2022-10-06T22:29:20.473Z,100709.63
2022-10-06T22:31:51.350Z,100864.97
2022-10-06T22:34:22.440Z,100868.72
2022-10-06T22:36:52.987Z,100876.00
2022-10-06T22:39:23.427Z,100861.69
2022-10-06T22:42:00.365Z,100848.13
2022-10-06T22:44:33.660Z,100862.06
2022-10-06T22:52:43.929Z,100859.81
2022-10-06T22:55:15.179Z,100865.38
2022-10-06T22:57:46.008Z,100865.81
2022-10-06T23:00:17.573Z,100863.31
2022-10-06T23:02:50.861Z,100860.78
2022-10-06T23:05:21.927Z,100859.16
2022-10-06T23:07:52.607Z,100863.75
2022-10-06T23:10:23.522Z,100871.84
2022-10-06T23:12:59.180Z,100871.47
2022-10-06T23:15:30.529Z,100872.13
2022-10-06T23:18:01.745Z,100876.69
2022-10-06T23:20:32.727Z,100872.75
2022-10-06T23:23:03.495Z,100864.22
2022-10-06T23:25:40.518Z,100860.09
2022-10-06T23:28:11.207Z,100880.47
2022-10-06T23:30:42.032Z,100882.16
2022-10-06T23:33:12.562Z,100888.00
2022-10-06T23:35:43.605Z,100887.81
2022-10-06T23:38:15.083Z,100890.72
2022-10-06T23:40:45.734Z,100896.31
2022-10-06T23:43:16.624Z,100898.81
2022-10-06T23:45:56.900Z,100882.03
2022-10-06T23:48:29.523Z,100870.59
2022-10-06T23:51:14.674Z,100817.22
2022-10-06T23:53:49.364Z,100906.34
2022-10-06T23:56:23.814Z,100910.09
2022-10-06T23:58:54.397Z,100910.09
